Sault Sainte Marie, MI

8:09 AM EST on November 22, 2014 (GMT -0500)
Mackinac Island | Change Station
CLOSE
Current Station
Airport
Location: Mackinac Island,
Elevation: 741 ft
Nearby Weather Stations

Elev 741 ft 45.87 °N, 84.64 °W | Updated 13 minutes ago

Overcast
Overcast
36 °F
Feels Like 27 °F
N
13
Wind Variable Wind from SSW
Gusts 16 mph

Today
High -- | Low -- °F
--% Chance of Precip.
Yesterday
High -- | Low -- °F
Precip. -- in
7:49 AM 4:57 PM
New Moon, 0% visible
Pressure 29.84 in
Visibility 10.0 miles
Clouds Overcast 1100 ft
Windchill 27 °F
Dew Point 32 °F
Humidity 86%
Rainfall 0.00 in
Snow Depth Not available.
UV 0 out of 12
Pollen .10 out of 12
Air Quality Not available.
Flu Activity Not available.
METAR KMCD 221256Z AUTO 21011G14KT 10SM OVC011 02/00 A2984 RMK AO2 T00210000

More Conditions Fewer Conditions

Pressure 29.84 in
Visibility 10.0 miles
Clouds Overcast 1100 ft
Windchill 27 °F
Dew Point 32 °F
Humidity 86%
Rainfall 0.00 in
Snow Depth Not available.
UV 0 out of 12
Pollen .10 out of 12
Air Quality Not available.
Flu Activity Not available.
METAR KMCD 221256Z AUTO 21011G14KT 10SM OVC011 02/00 A2984 RMK AO2 T00210000

More Conditions Fewer Conditions

Nowcast | as of 8:00 am EST on November 22, 2014

At 9 am...cloudy. Chance of freezing drizzle. Temperature 33. Southwest winds 17 mph. At 11 am...cloudy. Occasional drizzle. Temperature 34. Southwest winds 16 mph. At 1 PM...cloudy. Occasional drizzle. Temperature 36. Southwest winds 14 mph. At 3 PM...cloudy. Occasional drizzle. Temperature 36. Southwest winds 13 mph.

×

10-Day Weather Forecast

Almanac

Astronomy

Nov. 22, 2014 Rise Set
Actual Time
Civil Twilight
Nautical Twilight
Astronomical Twilight
Moon
Length of Visible Light
Length of Day
Tomorrow will be .
, % of the Moon is Illuminated

Today's Extremes

State Highs State Lows

Community

WunderPhotos

Upload Photos

1,772,811 photos uploaded!

WunderBlogs® & News

Nearby

Air Quality

  Air Quality AQ Index Pollutant
Not available.

Snow Depth

Station Depth Elevation

Earthquake Activity

City Distance Mag. Time & Date
Minimum magnitude displayed is 2.5.

Coastal Water Temperatures

Place Temperature

Nearby Weather Stations